createdAt,value
2023-01-13T00:01:34.304Z,92230.44
2023-01-13T00:04:05.390Z,92241.59
2023-01-13T00:06:35.478Z,92227.44
2023-01-13T00:09:04.477Z,92220.56
2023-01-13T00:11:33.366Z,92207.13
2023-01-13T00:14:02.320Z,92225.53
2023-01-13T00:16:31.308Z,92224.00
2023-01-13T00:19:00.495Z,92216.38
2023-01-13T00:21:29.201Z,92208.34
2023-01-13T00:23:59.292Z,92207.94
2023-01-13T00:26:33.882Z,92202.19
2023-01-13T00:29:03.004Z,92188.31
2023-01-13T00:31:32.095Z,92197.91
2023-01-13T00:34:02.542Z,92189.84
2023-01-13T00:36:32.439Z,92181.00
2023-01-13T00:39:03.433Z,92181.81
2023-01-13T00:41:52.305Z,92188.34
2023-01-13T00:44:20.151Z,92184.91
2023-01-13T00:46:48.903Z,92181.41
2023-01-13T00:49:17.674Z,92172.25
2023-01-13T00:51:47.032Z,92184.13
2023-01-13T00:54:17.161Z,92180.31
2023-01-13T00:56:46.052Z,92172.63
2023-01-13T00:59:15.827Z,92169.16
2023-01-13T01:01:44.814Z,92163.81
2023-01-13T01:04:13.880Z,92180.72
2023-01-13T01:06:42.964Z,92192.22
2023-01-13T01:09:16.931Z,92170.75
2023-01-13T01:11:46.202Z,92188.00
2023-01-13T01:14:15.646Z,92179.97
2023-01-13T01:16:44.337Z,92176.13
2023-01-13T01:19:13.032Z,92180.38
2023-01-13T01:21:42.308Z,92173.81
2023-01-13T01:24:11.581Z,92199.16
2023-01-13T01:26:42.348Z,92194.59
2023-01-13T01:29:16.106Z,92189.19
2023-01-13T01:31:45.323Z,92184.59
2023-01-13T01:34:14.327Z,92186.16
2023-01-13T01:36:43.292Z,92188.78
2023-01-13T01:39:12.248Z,92191.88
2023-01-13T01:42:02.857Z,92198.41
2023-01-13T01:45:11.228Z,92180.75
2023-01-13T01:47:40.357Z,92195.31
2023-01-13T01:50:10.367Z,92179.63
2023-01-13T01:52:42.381Z,92180.72
2023-01-13T01:55:16.058Z,92161.06
2023-01-13T01:57:52.146Z,92180.75
2023-01-13T02:00:21.315Z,92181.53
2023-01-13T02:02:52.924Z,92171.13
2023-01-13T02:05:22.438Z,92168.03
2023-01-13T02:07:54.804Z,92162.25
2023-01-13T02:10:27.906Z,92166.13
2023-01-13T02:13:01.256Z,92168.44
2023-01-13T02:15:36.861Z,92163.78
2023-01-13T02:18:25.680Z,92154.56
2023-01-13T02:21:51.041Z,92153.03
2023-01-13T02:24:55.574Z,92159.16
2023-01-13T02:28:01.161Z,92167.59
2023-01-13T02:31:01.509Z,92178.28
2023-01-13T02:33:52.117Z,92166.06
2023-01-13T02:36:32.138Z,92149.19
2023-01-13T02:39:08.749Z,92160.69
2023-01-13T02:42:03.720Z,92154.56
2023-01-13T02:44:41.661Z,92161.47
2023-01-13T02:47:19.156Z,92159.16
2023-01-13T02:49:52.183Z,92152.25
2023-01-13T02:52:26.972Z,92163.00
2023-01-13T02:55:00.890Z,92150.69
2023-01-13T02:57:32.745Z,92145.34
2023-01-13T03:00:02.624Z,92171.44
2023-01-13T03:02:32.625Z,92142.69
2023-01-13T03:05:02.399Z,92137.66
2023-01-13T03:07:57.275Z,92137.25
2023-01-13T03:10:47.605Z,92148.84
2023-01-13T03:14:02.245Z,92133.13
2023-01-13T03:16:40.249Z,92135.41
2023-01-13T03:19:35.038Z,92132.72
2023-01-13T03:22:16.897Z,92154.56
2023-01-13T03:24:53.292Z,92120.00
2023-01-13T03:27:28.421Z,92130.31
2023-01-13T03:30:03.177Z,92139.88
2023-01-13T03:32:36.142Z,92103.84
2023-01-13T03:35:13.553Z,92116.53
2023-01-13T03:37:47.903Z,92116.91
2023-01-13T03:40:21.989Z,92112.69
2023-01-13T03:43:09.660Z,92119.19
2023-01-13T03:45:41.668Z,92121.09
2023-01-13T03:48:16.531Z,92106.94
2023-01-13T03:50:51.487Z,92115.38
2023-01-13T03:53:25.594Z,92121.91
2023-01-13T03:56:02.722Z,92111.91
2023-01-13T03:58:36.723Z,92098.13
2023-01-13T04:01:12.888Z,92098.16
2023-01-13T04:03:49.310Z,92082.44
2023-01-13T04:06:26.363Z,92059.72
2023-01-13T04:09:03.607Z,92083.56
2023-01-13T04:11:38.794Z,92040.22
2023-01-13T04:14:10.744Z,92075.13
2023-01-13T04:16:39.861Z,92051.38
2023-01-13T04:19:08.625Z,92051.78
2023-01-13T04:21:38.776Z,92059.03
2023-01-13T04:24:07.962Z,92068.59
2023-01-13T04:26:37.041Z,92079.34
2023-01-13T04:29:06.035Z,92067.03
2023-01-13T04:31:34.763Z,92077.38
2023-01-13T04:34:03.834Z,92069.72
2023-01-13T04:36:32.812Z,92073.59
2023-01-13T04:39:03.045Z,92064.75
2023-01-13T04:41:53.134Z,92070.91
2023-01-13T04:44:22.031Z,92055.56
2023-01-13T04:46:50.556Z,92065.13
2023-01-13T04:49:19.087Z,92060.53
2023-01-13T04:51:47.965Z,92077.38
2023-01-13T04:54:17.934Z,92068.59
2023-01-13T04:56:46.685Z,92067.03
2023-01-13T04:59:15.693Z,92072.41
2023-01-13T05:01:44.563Z,92073.94
2023-01-13T05:04:15.518Z,92075.84
2023-01-13T05:06:44.371Z,92070.50
2023-01-13T05:09:15.693Z,92052.47
2023-01-13T05:12:03.270Z,92051.69
2023-01-13T05:14:49.717Z,92068.56
2023-01-13T05:17:22.355Z,92070.88
2023-01-13T05:19:51.143Z,92067.47
2023-01-13T05:22:37.440Z,92055.97
2023-01-13T05:25:26.089Z,92064.03
2023-01-13T05:27:58.387Z,92076.28
2023-01-13T05:30:29.741Z,92062.47
2023-01-13T05:32:58.673Z,92064.00
2023-01-13T05:35:29.202Z,92074.38
2023-01-13T05:37:58.181Z,92064.78
2023-01-13T05:40:44.256Z,92077.41
2023-01-13T05:43:24.720Z,92064.78
2023-01-13T05:45:59.290Z,92079.34
2023-01-13T05:48:30.472Z,92076.25
2023-01-13T05:50:59.207Z,92060.16
2023-01-13T05:53:28.219Z,92063.25
2023-01-13T05:55:57.064Z,92048.66
2023-01-13T05:58:29.123Z,92045.59
2023-01-13T06:01:02.151Z,92053.25
2023-01-13T06:03:31.193Z,92062.47
2023-01-13T06:06:02.196Z,92054.03
2023-01-13T06:08:31.606Z,92051.34
2023-01-13T06:11:00.500Z,92047.91
2023-01-13T06:13:31.164Z,92052.91
2023-01-13T06:16:00.245Z,92049.44
2023-01-13T06:18:29.987Z,92047.16
2023-01-13T06:20:58.855Z,92028.00
2023-01-13T06:23:28.130Z,92041.75
2023-01-13T06:26:05.885Z,92040.63
2023-01-13T06:28:36.296Z,92043.28
2023-01-13T06:31:12.000Z,92033.34
2023-01-13T06:33:45.793Z,92041.03
2023-01-13T06:36:18.011Z,92043.31
2023-01-13T06:38:52.087Z,92047.53
2023-01-13T06:41:41.112Z,92049.44
2023-01-13T06:44:10.139Z,92042.19
2023-01-13T06:46:38.839Z,92059.44
2023-01-13T06:49:07.897Z,92052.91
2023-01-13T06:51:36.704Z,92056.00
2023-01-13T06:54:05.964Z,92060.97
2023-01-13T06:56:34.806Z,92059.06
2023-01-13T06:59:03.287Z,92053.31
2023-01-13T07:04:22.343Z,92065.59
2023-01-13T07:06:50.868Z,92058.69
2023-01-13T07:09:19.892Z,92071.31
2023-01-13T07:11:48.415Z,92067.50
2023-01-13T07:14:35.069Z,92072.47
2023-01-13T07:17:05.351Z,92056.75
2023-01-13T07:19:34.140Z,92060.97
2023-01-13T07:22:02.665Z,92050.22
2023-01-13T07:24:31.370Z,92058.69
2023-01-13T07:27:00.130Z,92058.28
2023-01-13T07:29:28.967Z,92054.09
2023-01-13T07:31:57.477Z,92061.00
2023-01-13T07:34:27.662Z,92056.78
2023-01-13T07:36:56.471Z,92062.53
2023-01-13T07:39:24.961Z,92053.72
2023-01-13T07:42:11.107Z,92051.81
2023-01-13T07:44:40.042Z,92051.41
2023-01-13T07:47:10.650Z,92056.03
2023-01-13T07:49:40.572Z,92055.66
2023-01-13T07:52:09.112Z,92062.59
2023-01-13T07:54:40.928Z,92067.56
2023-01-13T07:57:10.282Z,92067.19
2023-01-13T07:59:39.072Z,92104.03
2023-01-13T08:02:07.834Z,92071.00
2023-01-13T08:04:36.410Z,92127.78
2023-01-13T08:07:08.129Z,92108.22
2023-01-13T08:09:37.070Z,92093.22
2023-01-13T08:12:23.541Z,92089.41
2023-01-13T08:14:54.091Z,92110.91
2023-01-13T08:17:22.606Z,92117.06
2023-01-13T08:19:51.429Z,92109.34
2023-01-13T08:22:22.836Z,92100.16
2023-01-13T08:24:51.691Z,92151.94
2023-01-13T08:27:20.697Z,92136.22
2023-01-13T08:29:49.494Z,92142.28
2023-01-13T08:32:18.041Z,92122.72
2023-01-13T08:34:46.981Z,92136.88
2023-01-13T08:37:15.663Z,92107.28
2023-01-13T08:39:45.596Z,92137.59
2023-01-13T08:42:14.581Z,92116.09
2023-01-13T08:44:43.591Z,92130.31
2023-01-13T08:47:12.293Z,92119.91
2023-01-13T08:49:41.455Z,92137.16
2023-01-13T08:52:10.005Z,92128.38
2023-01-13T08:54:39.920Z,92136.84
2023-01-13T08:57:09.929Z,92138.75
2023-01-13T08:59:40.142Z,92138.41
2023-01-13T09:02:15.337Z,92126.13
2023-01-13T09:04:44.474Z,92140.72
2023-01-13T09:07:13.545Z,92148.38
2023-01-13T09:09:42.804Z,92145.72
2023-01-13T09:12:48.574Z,92157.63
2023-01-13T09:15:18.508Z,92166.09
2023-01-13T09:17:48.043Z,92153.41
2023-01-13T09:20:16.700Z,92169.88
2023-01-13T09:22:45.503Z,92161.81
2023-01-13T09:25:15.268Z,92159.88
2023-01-13T09:27:45.582Z,92168.38
2023-01-13T09:30:15.062Z,92159.94
2023-01-13T09:32:43.870Z,92167.22
2023-01-13T09:35:11.691Z,92156.53
2023-01-13T09:37:42.220Z,92154.22
2023-01-13T09:40:17.189Z,92143.84
2023-01-13T09:43:11.414Z,92173.44
2023-01-13T09:45:44.042Z,92167.69
2023-01-13T09:48:18.135Z,92165.00
2023-01-13T09:50:56.739Z,92190.31
2023-01-13T09:53:30.839Z,92184.50
2023-01-13T09:55:59.451Z,92224.31
2023-01-13T09:58:29.431Z,92172.94
2023-01-13T10:01:17.822Z,92182.94
2023-01-13T10:03:48.983Z,92186.38
2023-01-13T10:06:22.607Z,92181.75
2023-01-13T10:08:51.563Z,92187.50
2023-01-13T10:11:39.580Z,92207.41
2023-01-13T10:14:20.180Z,92173.28
2023-01-13T10:16:58.434Z,92176.75
2023-01-13T10:19:31.375Z,92216.56
2023-01-13T10:22:29.122Z,92184.03
2023-01-13T10:25:33.559Z,92183.69
2023-01-13T10:28:11.383Z,92185.97
2023-01-13T10:30:44.544Z,92159.53
2023-01-13T10:33:17.658Z,92182.94
2023-01-13T10:35:59.497Z,92169.91
2023-01-13T10:38:31.760Z,92163.00
2023-01-13T10:41:02.311Z,92167.38
2023-01-13T10:43:32.290Z,92159.31
2023-01-13T10:46:05.987Z,92148.53
2023-01-13T10:48:39.291Z,92168.13
2023-01-13T10:51:23.224Z,92171.59
2023-01-13T10:53:57.229Z,92181.94
2023-01-13T10:56:28.686Z,92216.13
2023-01-13T10:59:17.836Z,92160.13
2023-01-13T11:02:03.953Z,92172.38
2023-01-13T11:04:39.351Z,92195.41
2023-01-13T11:07:22.573Z,92186.13
2023-01-13T11:10:00.574Z,92190.00
2023-01-13T11:12:33.734Z,92183.09
2023-01-13T11:15:08.933Z,92216.13
2023-01-13T11:17:45.579Z,92188.41
2023-01-13T11:20:23.023Z,92209.06
2023-01-13T11:22:55.733Z,92177.22
2023-01-13T11:25:32.828Z,92188.69
2023-01-13T11:28:07.212Z,92196.09
2023-01-13T11:30:43.363Z,92196.09
2023-01-13T11:33:34.463Z,92199.13
2023-01-13T11:36:12.153Z,92174.47
2023-01-13T11:38:48.891Z,92183.38
2023-01-13T11:41:33.541Z,92199.59
2023-01-13T11:44:16.740Z,92179.91
2023-01-13T11:46:45.789Z,92190.75
2023-01-13T11:49:26.427Z,92174.56
2023-01-13T11:52:02.611Z,92188.75
2023-01-13T11:54:53.398Z,92207.47
2023-01-13T11:58:01.582Z,92234.34
2023-01-13T12:00:38.369Z,92217.94
2023-01-13T12:03:26.230Z,92224.44
2023-01-13T12:06:12.863Z,92212.94
2023-01-13T12:09:04.944Z,92199.19
2023-01-13T12:12:01.666Z,92207.63
2023-01-13T12:14:44.537Z,92212.16
2023-01-13T12:17:25.112Z,92236.63
2023-01-13T12:19:53.913Z,92202.75
2023-01-13T12:22:28.026Z,92230.78
2023-01-13T12:25:05.231Z,92219.66
2023-01-13T12:27:47.598Z,92217.09
2023-01-13T12:30:26.385Z,92231.28
2023-01-13T12:33:00.539Z,92217.06
2023-01-13T12:35:40.127Z,92227.44
2023-01-13T12:38:21.227Z,92231.63
2023-01-13T12:41:01.605Z,92248.03
2023-01-13T12:43:48.102Z,92241.19
2023-01-13T12:46:36.655Z,92210.81
2023-01-13T12:49:13.628Z,92233.91
2023-01-13T12:52:12.840Z,92229.22
2023-01-13T12:55:18.459Z,92231.94
2023-01-13T12:58:17.705Z,92232.63
2023-01-13T13:01:03.934Z,92216.53
2023-01-13T13:03:37.518Z,92219.16
2023-01-13T13:06:15.043Z,92221.84
2023-01-13T13:08:54.253Z,92223.00
2023-01-13T13:12:05.045Z,92231.06
2023-01-13T13:15:04.118Z,92237.28
2023-01-13T13:17:44.516Z,92247.22
2023-01-13T13:20:58.018Z,92232.53
2023-01-13T13:23:59.668Z,92270.66
2023-01-13T13:26:45.898Z,92260.84
2023-01-13T13:29:44.116Z,92260.38
2023-01-13T13:32:38.525Z,92250.72
2023-01-13T13:35:40.243Z,92242.59
2023-01-13T13:38:44.364Z,92268.13
2023-01-13T13:41:36.107Z,92252.38
2023-01-13T13:44:32.639Z,92270.72
2023-01-13T13:47:04.083Z,92270.63
2023-01-13T13:49:42.446Z,92278.16
2023-01-13T13:52:20.381Z,92270.59
2023-01-13T13:54:52.833Z,92271.28
2023-01-13T13:57:25.115Z,92266.22
2023-01-13T14:00:00.096Z,92269.13
2023-01-13T14:02:32.838Z,92281.09
2023-01-13T14:05:20.447Z,92278.75
2023-01-13T14:07:52.718Z,92277.44
2023-01-13T14:10:26.090Z,92271.81
2023-01-13T14:12:54.942Z,92293.19
2023-01-13T14:15:35.363Z,92292.13
2023-01-13T14:18:06.457Z,92304.84
2023-01-13T14:20:36.946Z,92310.97
2023-01-13T14:23:06.003Z,92305.31
2023-01-13T14:25:39.976Z,92316.00
2023-01-13T14:28:28.245Z,92316.53
2023-01-13T14:30:58.660Z,92317.47
2023-01-13T14:33:38.841Z,92313.66
2023-01-13T14:36:19.958Z,92323.88
2023-01-13T14:38:52.527Z,92313.13
2023-01-13T14:41:27.481Z,92324.66
2023-01-13T14:44:00.067Z,92322.72
2023-01-13T14:46:39.925Z,92340.47
2023-01-13T14:49:25.397Z,92338.25
2023-01-13T14:51:54.722Z,92340.63
2023-01-13T14:54:44.435Z,92356.38
2023-01-13T14:57:25.403Z,92351.34
2023-01-13T15:00:08.332Z,92375.78
2023-01-13T15:02:45.227Z,92362.25
2023-01-13T15:05:47.492Z,92367.44
2023-01-13T15:08:37.208Z,92389.75
2023-01-13T15:11:08.401Z,92385.97
2023-01-13T15:13:46.023Z,92370.75
2023-01-13T15:16:25.068Z,92369.19
2023-01-13T15:18:55.999Z,92379.94
2023-01-13T15:21:25.378Z,92377.53
2023-01-13T15:23:54.174Z,92383.16
2023-01-13T15:26:28.791Z,92391.38
2023-01-13T15:28:59.739Z,92385.91
2023-01-13T15:31:29.441Z,92397.19
2023-01-13T15:34:00.824Z,92401.94
2023-01-13T15:36:31.493Z,92392.78
2023-01-13T15:39:01.233Z,92388.50
2023-01-13T15:41:47.439Z,92392.78
2023-01-13T15:44:34.649Z,92390.78
2023-01-13T15:47:06.584Z,92400.94
2023-01-13T15:49:39.402Z,92396.47
2023-01-13T15:52:21.572Z,92373.63
2023-01-13T15:54:50.326Z,92398.59
2023-01-13T15:57:23.913Z,92416.75
2023-01-13T15:59:55.082Z,92403.63
2023-01-13T16:02:24.494Z,92405.03
2023-01-13T16:04:54.961Z,92413.97
2023-01-13T16:07:25.752Z,92412.97
2023-01-13T16:09:54.963Z,92416.63
2023-01-13T16:12:23.777Z,92412.53
2023-01-13T16:14:52.508Z,92408.13
2023-01-13T16:17:25.140Z,92417.75
2023-01-13T16:19:55.095Z,92424.44
2023-01-13T16:22:24.039Z,92416.75
2023-01-13T16:24:52.840Z,92408.25
2023-01-13T16:27:24.836Z,92420.38
2023-01-13T16:29:53.957Z,92417.28
2023-01-13T16:32:22.485Z,92418.03
2023-01-13T16:34:51.307Z,92410.34
2023-01-13T16:37:27.443Z,92413.19
2023-01-13T16:39:56.173Z,92407.34
2023-01-13T16:42:24.714Z,92419.53
2023-01-13T16:44:53.241Z,92416.84
2023-01-13T16:47:22.877Z,92417.34
2023-01-13T16:49:51.780Z,92429.41
2023-01-13T16:52:21.705Z,92435.09
2023-01-13T16:54:50.504Z,92441.09
2023-01-13T16:57:18.986Z,92451.31
2023-01-13T16:59:48.231Z,92450.31
2023-01-13T17:02:20.784Z,92458.28
2023-01-13T17:04:49.987Z,92458.88
2023-01-13T17:07:19.313Z,92472.19
2023-01-13T17:09:49.450Z,92474.97
2023-01-13T17:12:18.337Z,92470.09
2023-01-13T17:14:46.852Z,92471.78
2023-01-13T17:17:23.369Z,92471.97
2023-01-13T17:19:52.240Z,92477.91
2023-01-13T17:22:22.132Z,92502.69
2023-01-13T17:24:52.164Z,92500.56
2023-01-13T17:27:21.796Z,92502.69
2023-01-13T17:29:53.547Z,92518.72
2023-01-13T17:32:23.675Z,92541.88
2023-01-13T17:34:53.969Z,92553.63
2023-01-13T17:37:23.259Z,92565.69
2023-01-13T17:39:53.661Z,92581.22
2023-01-13T17:42:28.184Z,92584.53
2023-01-13T17:44:56.965Z,92575.47
2023-01-13T17:47:25.522Z,92561.38
2023-01-13T17:49:54.323Z,92569.22
2023-01-13T17:52:23.108Z,92567.91
2023-01-13T17:54:52.984Z,92564.38
2023-01-13T17:57:22.057Z,92573.75
2023-01-13T17:59:50.832Z,92571.81
2023-01-13T18:02:19.465Z,92581.34
2023-01-13T18:04:48.377Z,92584.38
2023-01-13T18:07:17.192Z,92595.75
2023-01-13T18:09:45.957Z,92593.94
2023-01-13T18:12:15.895Z,92610.09
2023-01-13T18:14:44.632Z,92600.41
2023-01-13T18:17:13.456Z,92591.19
2023-01-13T18:20:14.007Z,92604.19
2023-01-13T18:23:00.097Z,92610.97
2023-01-13T18:25:46.156Z,92624.97
2023-01-13T18:28:16.082Z,92629.19
2023-01-13T18:30:45.606Z,92621.97
2023-01-13T18:33:14.122Z,92624.28
2023-01-13T18:35:42.904Z,92644.78
2023-01-13T18:38:12.879Z,92646.44
2023-01-13T18:40:44.112Z,92663.59
2023-01-13T18:43:12.139Z,92670.53
2023-01-13T18:45:42.084Z,92647.47
2023-01-13T18:48:10.701Z,92668.41
2023-01-13T18:50:39.219Z,92655.66
2023-01-13T18:53:08.122Z,92658.69
2023-01-13T18:55:38.334Z,92656.38
2023-01-13T18:58:06.986Z,92658.69
2023-01-13T19:00:38.671Z,92661.75
2023-01-13T19:03:09.034Z,92668.47
2023-01-13T19:05:38.619Z,92680.00
2023-01-13T19:08:07.685Z,92678.03
2023-01-13T19:10:37.906Z,92685.97
2023-01-13T19:13:06.903Z,92669.78
2023-01-13T19:15:38.374Z,92660.72
2023-01-13T19:18:08.618Z,92668.66
2023-01-13T19:20:38.801Z,92667.19
2023-01-13T19:23:08.563Z,92668.91
2023-01-13T19:25:38.949Z,92669.88
2023-01-13T19:28:07.771Z,92687.50
2023-01-13T19:30:36.338Z,92688.03
2023-01-13T19:33:05.246Z,92691.91
2023-01-13T19:35:38.064Z,92703.28
2023-01-13T19:38:06.578Z,92700.28
2023-01-13T19:40:35.444Z,92711.53
2023-01-13T19:43:21.838Z,92720.69
2023-01-13T19:45:52.491Z,92711.72
2023-01-13T19:48:21.351Z,92713.72
2023-01-13T19:50:51.338Z,92714.50
2023-01-13T19:53:20.315Z,92706.19
2023-01-13T19:55:49.357Z,92712.94
2023-01-13T19:58:20.179Z,92710.63
2023-01-13T20:00:49.218Z,92711.63
2023-01-13T20:03:20.683Z,92712.84
2023-01-13T20:05:50.699Z,92717.50
2023-01-13T20:08:20.350Z,92721.72
2023-01-13T20:10:49.701Z,92724.88
2023-01-13T20:13:18.481Z,92742.03
2023-01-13T20:15:47.299Z,92745.41
2023-01-13T20:18:15.852Z,92759.97
2023-01-13T20:20:44.648Z,92756.00
2023-01-13T20:23:14.582Z,92753.78
2023-01-13T20:25:44.133Z,92748.47
2023-01-13T20:28:12.932Z,92756.00
2023-01-13T20:30:41.754Z,92740.22
2023-01-13T20:33:10.510Z,92747.22
2023-01-13T20:35:39.307Z,92754.19
2023-01-13T20:38:07.823Z,92754.53
2023-01-13T20:40:37.793Z,92762.66
2023-01-13T20:43:05.496Z,92769.78
2023-01-13T20:45:34.279Z,92776.59
2023-01-13T20:48:03.026Z,92779.41
2023-01-13T20:50:31.822Z,92781.59
2023-01-13T20:53:00.605Z,92781.41
2023-01-13T20:55:29.142Z,92790.47
2023-01-13T20:57:59.047Z,92791.59
2023-01-13T21:00:28.673Z,92786.69
2023-01-13T21:02:57.536Z,92789.75
2023-01-13T21:05:26.362Z,92780.28
2023-01-13T21:07:54.891Z,92800.44
2023-01-13T21:10:24.404Z,92785.81
2023-01-13T21:13:10.784Z,92783.50
2023-01-13T21:15:40.731Z,92775.56
2023-01-13T21:18:27.392Z,92769.78
2023-01-13T21:21:11.582Z,92773.97
2023-01-13T21:23:41.290Z,92765.38
2023-01-13T21:26:10.457Z,92768.81
2023-01-13T21:28:39.513Z,92765.50
2023-01-13T21:31:11.112Z,92757.38
2023-01-13T21:33:40.442Z,92763.59
2023-01-13T21:36:10.490Z,92765.50
2023-01-13T21:38:39.437Z,92761.16
2023-01-13T21:41:10.163Z,92762.31
2023-01-13T21:43:57.105Z,92760.13
2023-01-13T21:46:44.268Z,92763.34
2023-01-13T21:49:13.323Z,92767.28
2023-01-13T21:51:43.911Z,92764.00
2023-01-13T21:54:13.403Z,92759.13
2023-01-13T21:56:42.153Z,92770.31
2023-01-13T21:59:10.931Z,92766.88
2023-01-13T22:02:22.936Z,92773.75
2023-01-13T22:04:29.763Z,92777.97
2023-01-13T22:06:59.911Z,92774.13
2023-01-13T22:09:28.737Z,92780.22
2023-01-13T22:11:57.564Z,92780.38
2023-01-13T22:14:26.495Z,92787.63
2023-01-13T22:17:00.621Z,92786.94
2023-01-13T22:19:30.551Z,92797.13
2023-01-13T22:21:59.558Z,92798.16
2023-01-13T22:24:30.259Z,92796.09
2023-01-13T22:26:59.051Z,92809.38
2023-01-13T22:29:27.535Z,92820.16
2023-01-13T22:31:57.695Z,92827.06
2023-01-13T22:34:26.204Z,92817.00
2023-01-13T22:36:54.809Z,92813.84
2023-01-13T22:39:23.362Z,92821.50
2023-01-13T22:41:51.881Z,92830.75
2023-01-13T22:44:21.118Z,92820.25
2023-01-13T22:46:49.716Z,92827.25
2023-01-13T22:49:20.388Z,92831.88
2023-01-13T22:51:49.590Z,92832.31
2023-01-13T22:54:19.370Z,92812.88
2023-01-13T22:56:47.966Z,92830.16
2023-01-13T22:59:16.669Z,92831.88
2023-01-13T23:01:45.745Z,92828.09
2023-01-13T23:04:14.895Z,92828.28
2023-01-13T23:06:45.034Z,92826.81
2023-01-13T23:09:13.807Z,92826.03
2023-01-13T23:11:42.693Z,92821.19
2023-01-13T23:14:14.036Z,92818.09
2023-01-13T23:16:43.467Z,92817.66
2023-01-13T23:19:15.489Z,92816.22
2023-01-13T23:21:45.485Z,92814.91
2023-01-13T23:24:14.355Z,92826.72
2023-01-13T23:26:42.965Z,92826.72
2023-01-13T23:29:14.651Z,92826.47
2023-01-13T23:31:43.565Z,92814.31
2023-01-13T23:34:12.048Z,92814.66
2023-01-13T23:36:42.032Z,92812.50
2023-01-13T23:39:11.955Z,92808.00
2023-01-13T23:41:40.598Z,92804.06
2023-01-13T23:44:10.098Z,92808.78
2023-01-13T23:46:39.426Z,92812.56
2023-01-13T23:49:07.968Z,92805.72
2023-01-13T23:51:36.781Z,92809.91
2023-01-13T23:54:05.898Z,92802.06
2023-01-13T23:56:39.356Z,92806.53
2023-01-13T23:59:08.607Z,92797.13
